createdAt,value
2023-05-04T00:00:10.181Z,1003.16
2023-05-04T00:01:10.162Z,1003.16
2023-05-04T00:02:10.152Z,1003.16
2023-05-04T00:03:10.215Z,1003.11
2023-05-04T00:04:10.269Z,1003.16
2023-05-04T00:05:10.103Z,1003.10
2023-05-04T00:06:10.187Z,1003.14
2023-05-04T00:07:10.088Z,1003.12
2023-05-04T00:08:10.137Z,1003.15
2023-05-04T00:09:11.108Z,1003.12
2023-05-04T00:10:10.078Z,1003.12
2023-05-04T00:11:10.080Z,1003.12
2023-05-04T00:12:10.050Z,1003.14
2023-05-04T00:13:10.210Z,1003.11
2023-05-04T00:14:10.040Z,1003.02
2023-05-04T00:15:10.036Z,1003.02
2023-05-04T00:16:11.068Z,1003.06
2023-05-04T00:17:11.006Z,1003.04
2023-05-04T00:18:10.000Z,1003.03
2023-05-04T00:19:10.257Z,1003.04
2023-05-04T00:20:10.018Z,1003.08
2023-05-04T00:21:10.004Z,1003.05
2023-05-04T00:22:09.993Z,1003.04
2023-05-04T00:23:09.970Z,1003.02
2023-05-04T00:24:09.960Z,1003.07
2023-05-04T00:25:09.978Z,1003.01
2023-05-04T00:26:10.017Z,1002.92
2023-05-04T00:27:09.948Z,1002.98
2023-05-04T00:28:09.931Z,1003.03
2023-05-04T00:29:10.005Z,1002.99
2023-05-04T00:30:09.935Z,1002.99
2023-05-04T00:31:09.946Z,1002.91
2023-05-04T00:32:09.905Z,1002.95
2023-05-04T00:33:09.930Z,1002.89
2023-05-04T00:34:09.894Z,1002.89
2023-05-04T00:35:09.879Z,1002.87
2023-05-04T00:36:09.894Z,1002.93
2023-05-04T00:37:09.870Z,1002.92
2023-05-04T00:38:09.859Z,1002.88
2023-05-04T00:39:09.852Z,1002.87
2023-05-04T00:40:09.869Z,1002.86
2023-05-04T00:41:09.861Z,1002.85
2023-05-04T00:42:09.826Z,1002.83
2023-05-04T00:43:09.816Z,1002.79
2023-05-04T00:44:09.815Z,1002.84
2023-05-04T00:45:09.877Z,1002.79
2023-05-04T00:46:09.877Z,1002.80
2023-05-04T00:47:09.800Z,1002.81
2023-05-04T00:48:09.834Z,1002.76
2023-05-04T00:49:09.777Z,1002.74
2023-05-04T00:50:09.785Z,1002.75
2023-05-04T00:51:09.792Z,1002.71
2023-05-04T00:52:09.751Z,1002.69
2023-05-04T00:53:09.762Z,1002.81
2023-05-04T00:54:09.742Z,1002.77
2023-05-04T00:55:09.737Z,1002.82
2023-05-04T00:56:09.746Z,1002.62
2023-05-04T00:57:09.730Z,1002.76
2023-05-04T00:58:09.711Z,1002.75
2023-05-04T00:59:09.698Z,1002.74
2023-05-04T01:00:09.701Z,1002.69
2023-05-04T01:01:09.753Z,1002.72
2023-05-04T01:02:09.692Z,1002.64
2023-05-04T01:03:09.793Z,1002.74
2023-05-04T01:04:09.819Z,1002.71
2023-05-04T01:05:09.656Z,1002.72
2023-05-04T01:06:09.675Z,1002.67
2023-05-04T01:07:10.160Z,1002.66
2023-05-04T01:08:09.647Z,1002.70
2023-05-04T01:09:09.629Z,1002.65
2023-05-04T01:10:09.615Z,1002.64
2023-05-04T01:11:09.643Z,1002.64
2023-05-04T01:12:09.615Z,1002.65
2023-05-04T01:13:09.688Z,1002.65
2023-05-04T01:14:09.588Z,1002.62
2023-05-04T01:15:09.588Z,1002.61
2023-05-04T01:16:09.626Z,1002.59
2023-05-04T01:17:09.726Z,1002.65
2023-05-04T01:18:09.647Z,1002.65
2023-05-04T01:19:09.553Z,1002.61
2023-05-04T01:20:09.563Z,1002.58
2023-05-04T01:21:09.567Z,1002.66
2023-05-04T01:22:09.518Z,1002.67
2023-05-04T01:23:10.521Z,1002.67
2023-05-04T01:24:09.522Z,1002.63
2023-05-04T01:25:09.508Z,1002.64
2023-05-04T01:26:09.518Z,1002.65
2023-05-04T01:27:09.496Z,1002.60
2023-05-04T01:28:09.533Z,1002.59
2023-05-04T01:29:09.480Z,1002.57
2023-05-04T01:30:09.471Z,1002.55
2023-05-04T01:31:09.519Z,1002.63
2023-05-04T01:32:09.454Z,1002.61
2023-05-04T01:33:09.491Z,1002.58
2023-05-04T01:34:09.438Z,1002.64
2023-05-04T01:35:09.468Z,1002.57
2023-05-04T01:36:09.468Z,1002.69
2023-05-04T01:37:09.433Z,1002.71
2023-05-04T01:38:09.417Z,1002.71
2023-05-04T01:39:09.411Z,1002.66
2023-05-04T01:40:09.432Z,1002.69
2023-05-04T01:41:09.383Z,1002.64
2023-05-04T01:42:09.385Z,1002.73
2023-05-04T01:43:09.371Z,1002.74
2023-05-04T01:44:09.383Z,1002.71
2023-05-04T01:45:10.417Z,1002.71
2023-05-04T01:46:09.418Z,1002.70
2023-05-04T01:47:09.338Z,1002.64
2023-05-04T01:48:09.370Z,1002.75
2023-05-04T01:49:09.384Z,1002.78
2023-05-04T01:50:09.318Z,1002.74
2023-05-04T01:51:09.327Z,1002.64
2023-05-04T01:52:09.307Z,1002.68
2023-05-04T01:53:09.284Z,1002.71
2023-05-04T01:54:09.295Z,1002.74
2023-05-04T01:55:09.264Z,1002.67
2023-05-04T01:56:10.300Z,1002.68
2023-05-04T01:57:09.250Z,1002.68
2023-05-04T01:58:09.276Z,1002.69
2023-05-04T01:59:09.260Z,1002.69
2023-05-04T02:00:09.274Z,1002.68
2023-05-04T02:01:09.326Z,1002.66
2023-05-04T02:02:09.234Z,1002.65
2023-05-04T02:03:09.320Z,1002.70
2023-05-04T02:04:09.262Z,1002.62
2023-05-04T02:05:09.219Z,1002.64
2023-05-04T02:06:09.205Z,1002.72
2023-05-04T02:07:09.185Z,1002.67
2023-05-04T02:08:09.168Z,1002.66
2023-05-04T02:09:09.168Z,1002.71
2023-05-04T02:10:09.177Z,1002.69
2023-05-04T02:11:09.174Z,1002.70
2023-05-04T02:12:09.144Z,1002.69
2023-05-04T02:13:09.187Z,1002.73
2023-05-04T02:14:09.122Z,1002.66
2023-05-04T02:15:09.163Z,1002.68
2023-05-04T02:16:09.161Z,1002.64
2023-05-04T02:17:09.108Z,1002.63
2023-05-04T02:18:09.157Z,1002.62
2023-05-04T02:19:09.087Z,1002.59
2023-05-04T02:20:09.107Z,1002.65
2023-05-04T02:21:09.087Z,1002.62
2023-05-04T02:22:09.095Z,1002.65
2023-05-04T02:23:09.065Z,1002.64
2023-05-04T02:24:09.068Z,1002.65
2023-05-04T02:25:09.072Z,1002.64
2023-05-04T02:26:09.038Z,1002.54
2023-05-04T02:27:09.100Z,1002.65
2023-05-04T02:28:09.029Z,1002.61
2023-05-04T02:29:09.025Z,1002.69
2023-05-04T02:30:09.061Z,1002.58
2023-05-04T02:31:09.036Z,1002.57
2023-05-04T02:32:09.000Z,1002.60
2023-05-04T02:33:08.995Z,1002.62
2023-05-04T02:34:08.986Z,1002.61
2023-05-04T02:35:09.001Z,1002.59
2023-05-04T02:36:08.988Z,1002.63
2023-05-04T02:37:08.955Z,1002.61
2023-05-04T02:38:08.952Z,1002.59
2023-05-04T02:39:08.941Z,1002.58
2023-05-04T02:40:08.957Z,1002.56
2023-05-04T02:41:08.942Z,1002.64
2023-05-04T02:42:08.926Z,1002.59
2023-05-04T02:43:08.905Z,1002.59
2023-05-04T02:44:08.907Z,1002.58
2023-05-04T02:45:08.924Z,1002.57
2023-05-04T02:46:08.914Z,1002.49
2023-05-04T02:47:08.876Z,1002.54
2023-05-04T02:48:08.991Z,1002.61
2023-05-04T02:49:08.865Z,1002.55
2023-05-04T02:50:08.992Z,1002.51
2023-05-04T02:51:08.856Z,1002.55
2023-05-04T02:52:08.856Z,1002.57
2023-05-04T02:53:08.826Z,1002.50
2023-05-04T02:54:08.828Z,1002.55
2023-05-04T02:55:08.850Z,1002.44
2023-05-04T02:56:08.825Z,1002.46
2023-05-04T02:57:08.805Z,1002.55
2023-05-04T02:58:08.802Z,1002.58
2023-05-04T02:59:08.790Z,1002.54
2023-05-04T03:00:08.813Z,1002.55
2023-05-04T03:01:08.810Z,1002.53
2023-05-04T03:02:08.783Z,1002.52
2023-05-04T03:03:08.777Z,1002.53
2023-05-04T03:04:08.781Z,1002.61
2023-05-04T03:05:08.820Z,1002.57
2023-05-04T03:06:08.750Z,1002.55
2023-05-04T03:07:08.738Z,1002.56
2023-05-04T03:08:08.732Z,1002.63
2023-05-04T03:09:08.798Z,1002.56
2023-05-04T03:10:08.965Z,1002.55
2023-05-04T03:11:08.703Z,1002.71
2023-05-04T03:12:08.749Z,1002.69
2023-05-04T03:13:08.772Z,1002.63
2023-05-04T03:14:08.690Z,1002.69
2023-05-04T03:15:08.715Z,1002.67
2023-05-04T03:16:08.705Z,1002.58
2023-05-04T03:17:08.730Z,1002.63
2023-05-04T03:18:08.679Z,1002.60
2023-05-04T03:19:08.687Z,1002.65
2023-05-04T03:20:08.771Z,1002.70
2023-05-04T03:21:34.064Z,1002.58
2023-05-04T03:22:08.618Z,1002.67
2023-05-04T03:23:08.616Z,1002.66
2023-05-04T03:24:08.722Z,1002.66
2023-05-04T03:25:08.670Z,1002.65
2023-05-04T03:26:08.587Z,1002.66
2023-05-04T03:27:08.580Z,1002.60
2023-05-04T03:28:08.587Z,1002.61
2023-05-04T03:29:08.573Z,1002.62
2023-05-04T03:30:08.595Z,1002.63
2023-05-04T03:31:08.559Z,1002.58
2023-05-04T03:32:08.615Z,1002.53
2023-05-04T03:33:08.632Z,1002.67
2023-05-04T03:34:08.536Z,1002.56
2023-05-04T03:35:08.561Z,1002.58
2023-05-04T03:36:08.519Z,1002.54
2023-05-04T03:37:08.526Z,1002.51
2023-05-04T03:38:08.506Z,1002.51
2023-05-04T03:39:08.499Z,1002.52
2023-05-04T03:40:08.524Z,1002.56
2023-05-04T03:41:08.496Z,1002.54
2023-05-04T03:42:08.477Z,1002.52
2023-05-04T03:43:08.466Z,1002.51
2023-05-04T03:44:08.466Z,1002.47
2023-05-04T03:45:08.492Z,1002.52
2023-05-04T03:46:08.513Z,1002.52
2023-05-04T03:47:08.443Z,1002.48
2023-05-04T03:48:08.468Z,1002.54
2023-05-04T03:49:08.433Z,1002.47
2023-05-04T03:50:08.450Z,1002.44
2023-05-04T03:51:08.407Z,1002.53
2023-05-04T03:52:08.408Z,1002.46
2023-05-04T03:53:08.402Z,1002.41
2023-05-04T03:54:08.380Z,1002.43
2023-05-04T03:55:08.396Z,1002.43
2023-05-04T03:56:08.421Z,1002.37
2023-05-04T03:57:08.369Z,1002.43
2023-05-04T03:58:08.361Z,1002.42
2023-05-04T03:59:08.358Z,1002.35
2023-05-04T04:00:08.360Z,1002.40
2023-05-04T04:01:08.344Z,1002.39
2023-05-04T04:02:08.386Z,1002.39
2023-05-04T04:03:08.494Z,1002.41
2023-05-04T04:04:08.409Z,1002.41
2023-05-04T04:05:08.339Z,1002.37
2023-05-04T04:06:08.303Z,1002.38
2023-05-04T04:07:08.303Z,1002.46
2023-05-04T04:08:08.282Z,1002.36
2023-05-04T04:09:08.273Z,1002.43
2023-05-04T04:10:08.295Z,1002.39
2023-05-04T04:11:08.258Z,1002.41
2023-05-04T04:12:08.262Z,1002.39
2023-05-04T04:13:08.281Z,1002.42
2023-05-04T04:14:08.240Z,1002.32
2023-05-04T04:15:08.231Z,1002.34
2023-05-04T04:16:08.273Z,1002.30
2023-05-04T04:17:08.256Z,1002.35
2023-05-04T04:18:08.359Z,1002.33
2023-05-04T04:19:08.209Z,1002.34
2023-05-04T04:20:08.340Z,1002.27
2023-05-04T04:21:08.222Z,1002.32
2023-05-04T04:22:08.173Z,1002.33
2023-05-04T04:23:08.173Z,1002.33
2023-05-04T04:24:08.176Z,1002.37
2023-05-04T04:25:08.153Z,1002.34
2023-05-04T04:26:08.193Z,1002.35
2023-05-04T04:27:08.183Z,1002.35
2023-05-04T04:28:08.130Z,1002.42
2023-05-04T04:29:08.140Z,1002.35
2023-05-04T04:30:08.166Z,1002.35
2023-05-04T04:31:08.204Z,1002.34
2023-05-04T04:32:08.106Z,1002.28
2023-05-04T04:33:08.215Z,1002.33
2023-05-04T04:34:08.078Z,1002.47
2023-05-04T04:35:08.100Z,1002.33
2023-05-04T04:36:08.076Z,1002.33
2023-05-04T04:37:08.059Z,1002.26
2023-05-04T04:38:08.052Z,1002.39
2023-05-04T04:39:08.057Z,1002.41
2023-05-04T04:40:08.068Z,1002.35
2023-05-04T04:41:08.032Z,1002.39
2023-05-04T04:42:08.026Z,1002.40
2023-05-04T04:43:08.015Z,1002.33
2023-05-04T04:44:08.007Z,1002.46
2023-05-04T04:45:08.028Z,1002.32
2023-05-04T04:46:08.012Z,1002.36
2023-05-04T04:47:07.988Z,1002.33
2023-05-04T04:48:08.035Z,1002.42
2023-05-04T04:49:07.970Z,1002.45
2023-05-04T04:50:08.195Z,1002.38
2023-05-04T04:51:07.960Z,1002.37
2023-05-04T04:52:07.973Z,1002.39
2023-05-04T04:53:08.005Z,1002.43
2023-05-04T04:54:07.940Z,1002.40
2023-05-04T04:55:07.982Z,1002.34
2023-05-04T04:56:07.954Z,1002.41
2023-05-04T04:57:07.918Z,1002.35
2023-05-04T04:58:07.936Z,1002.30
2023-05-04T04:59:07.934Z,1002.32
2023-05-04T05:00:07.967Z,1002.31
2023-05-04T05:01:07.962Z,1002.31
2023-05-04T05:02:07.875Z,1002.29
2023-05-04T05:03:07.948Z,1002.33
2023-05-04T05:04:07.874Z,1002.29
2023-05-04T05:05:08.041Z,1002.35
2023-05-04T05:06:07.849Z,1002.25
2023-05-04T05:07:07.847Z,1002.27
2023-05-04T05:08:07.845Z,1002.23
2023-05-04T05:09:07.825Z,1002.24
2023-05-04T05:10:07.999Z,1002.28
2023-05-04T05:11:07.859Z,1002.23
2023-05-04T05:12:07.800Z,1002.22
2023-05-04T05:13:07.857Z,1002.25
2023-05-04T05:14:07.795Z,1002.28
2023-05-04T05:15:07.801Z,1002.21
2023-05-04T05:16:07.799Z,1002.19
2023-05-04T05:17:07.816Z,1002.22
2023-05-04T05:18:08.819Z,1002.16
2023-05-04T05:19:07.756Z,1002.14
2023-05-04T05:20:07.847Z,1002.21
2023-05-04T05:21:07.781Z,1002.20
2023-05-04T05:22:07.731Z,1002.15
2023-05-04T05:23:07.727Z,1002.23
2023-05-04T05:24:07.725Z,1002.14
2023-05-04T05:25:07.734Z,1002.07
2023-05-04T05:26:07.726Z,1002.12
2023-05-04T05:27:07.689Z,1002.06
2023-05-04T05:28:07.685Z,1002.11
2023-05-04T05:29:07.675Z,1002.09
2023-05-04T05:30:07.925Z,1002.17
2023-05-04T05:31:07.831Z,1002.08
2023-05-04T05:32:07.669Z,1002.08
2023-05-04T05:33:07.690Z,1002.25
2023-05-04T05:34:07.628Z,1002.16
2023-05-04T05:35:07.673Z,1002.16
2023-05-04T05:36:07.695Z,1002.16
2023-05-04T05:37:40.097Z,1002.17
2023-05-04T05:38:07.623Z,1002.12
2023-05-04T05:39:07.600Z,1002.04
2023-05-04T05:40:07.805Z,1002.17
2023-05-04T05:41:07.612Z,1002.07
2023-05-04T05:42:07.577Z,1002.11
2023-05-04T05:43:07.569Z,1002.12
2023-05-04T05:44:07.600Z,1002.14
2023-05-04T05:45:07.549Z,1002.11
2023-05-04T05:46:07.595Z,1002.12
2023-05-04T05:47:07.548Z,1002.10
2023-05-04T05:48:07.718Z,1002.16
2023-05-04T05:49:07.560Z,1002.12
2023-05-04T05:50:07.785Z,1002.07
2023-05-04T05:51:07.540Z,1002.13
2023-05-04T05:52:07.505Z,1002.16
2023-05-04T05:53:07.502Z,1002.16
2023-05-04T05:54:07.494Z,1002.16
2023-05-04T05:55:07.492Z,1002.15
2023-05-04T05:56:07.504Z,1002.15
2023-05-04T05:57:07.491Z,1002.18
2023-05-04T05:58:07.474Z,1002.21
2023-05-04T05:59:07.461Z,1002.22
2023-05-04T06:00:07.569Z,1002.22
2023-05-04T06:01:07.472Z,1002.23
2023-05-04T06:02:07.445Z,1002.23
2023-05-04T06:03:07.503Z,1002.21
2023-05-04T06:04:07.599Z,1002.26
2023-05-04T06:05:07.423Z,1002.19
2023-05-04T06:06:07.425Z,1002.24
2023-05-04T06:07:07.402Z,1002.17
2023-05-04T06:08:07.384Z,1002.17
2023-05-04T06:09:07.376Z,1002.13
2023-05-04T06:10:07.531Z,1002.24
2023-05-04T06:11:07.415Z,1002.15
2023-05-04T06:12:07.358Z,1002.17
2023-05-04T06:13:08.270Z,1002.11
2023-05-04T06:14:07.345Z,1002.19
2023-05-04T06:15:07.333Z,1002.12
2023-05-04T06:16:07.409Z,1002.11
2023-05-04T06:17:07.321Z,1002.07
2023-05-04T06:18:07.351Z,1002.14
2023-05-04T06:19:07.320Z,1002.14
2023-05-04T06:20:07.418Z,1002.12
2023-05-04T06:21:07.309Z,1002.16
2023-05-04T06:22:07.285Z,1002.04
2023-05-04T06:23:07.269Z,1002.15
2023-05-04T06:24:07.276Z,1002.12
2023-05-04T06:25:08.335Z,1002.06
2023-05-04T06:26:08.265Z,1002.06
2023-05-04T06:27:07.243Z,1002.07
2023-05-04T06:28:07.230Z,1002.07
2023-05-04T06:29:07.276Z,1002.02
2023-05-04T06:30:07.569Z,1002.07
2023-05-04T06:31:07.269Z,1002.00
2023-05-04T06:32:07.267Z,1002.05
2023-05-04T06:33:07.278Z,1002.04
2023-05-04T06:34:07.180Z,1002.05
2023-05-04T06:35:07.176Z,1002.06
2023-05-04T06:36:07.186Z,1002.00
2023-05-04T06:37:07.265Z,1002.06
2023-05-04T06:38:07.206Z,1002.01
2023-05-04T06:39:07.140Z,1002.06
2023-05-04T06:40:07.164Z,1001.98
2023-05-04T06:41:07.216Z,1001.98
2023-05-04T06:42:07.134Z,1001.92
2023-05-04T06:43:07.119Z,1001.93
2023-05-04T06:44:07.121Z,1001.91
2023-05-04T06:45:07.105Z,1001.92
2023-05-04T06:46:07.176Z,1001.93
2023-05-04T06:47:07.113Z,1001.96
2023-05-04T06:48:07.099Z,1001.87
2023-05-04T06:49:07.075Z,1001.91
2023-05-04T06:50:07.133Z,1001.88
2023-05-04T06:51:07.095Z,1001.86
2023-05-04T06:52:07.046Z,1001.88
2023-05-04T06:53:07.040Z,1001.82
2023-05-04T06:54:07.050Z,1001.87
2023-05-04T06:55:07.027Z,1001.79
2023-05-04T06:56:08.040Z,1001.77
2023-05-04T06:57:07.029Z,1001.78
2023-05-04T06:58:07.004Z,1001.85
2023-05-04T06:59:07.006Z,1001.80
2023-05-04T07:00:07.048Z,1001.81
2023-05-04T07:01:07.076Z,1001.83
2023-05-04T07:02:06.976Z,1001.90
2023-05-04T07:03:07.038Z,1001.88
2023-05-04T07:04:07.097Z,1001.87
2023-05-04T07:05:06.950Z,1001.78
2023-05-04T07:06:06.959Z,1001.84
2023-05-04T07:07:06.943Z,1001.81
2023-05-04T07:08:06.933Z,1001.83
2023-05-04T07:09:06.918Z,1001.73
2023-05-04T07:10:07.017Z,1001.79
2023-05-04T07:11:06.922Z,1001.81
2023-05-04T07:12:06.890Z,1001.76
2023-05-04T07:13:07.074Z,1001.81
2023-05-04T07:14:07.916Z,1001.78
2023-05-04T07:15:06.952Z,1001.84
2023-05-04T07:16:06.932Z,1001.74
2023-05-04T07:17:06.847Z,1001.82
2023-05-04T07:18:07.867Z,1001.84
2023-05-04T07:19:06.837Z,1001.79
2023-05-04T07:20:06.960Z,1001.78
2023-05-04T07:21:25.894Z,1001.80
2023-05-04T07:22:08.821Z,1001.77
2023-05-04T07:23:06.801Z,1001.78
2023-05-04T07:24:06.798Z,1001.74
2023-05-04T07:25:06.800Z,1001.71
2023-05-04T07:26:06.821Z,1001.72
2023-05-04T07:27:06.783Z,1001.74
2023-05-04T07:28:06.763Z,1001.67
2023-05-04T07:29:06.752Z,1001.67
2023-05-04T07:30:06.931Z,1001.73
2023-05-04T07:31:06.763Z,1001.66
2023-05-04T07:32:06.758Z,1001.69
2023-05-04T07:33:06.795Z,1001.77
2023-05-04T07:34:06.721Z,1001.78
2023-05-04T07:35:06.732Z,1001.74
2023-05-04T07:36:06.709Z,1001.67
2023-05-04T07:37:06.698Z,1001.70
2023-05-04T07:38:06.685Z,1001.70
2023-05-04T07:39:06.677Z,1001.73
2023-05-04T07:40:06.898Z,1001.72
2023-05-04T07:41:06.668Z,1001.68
2023-05-04T07:42:06.680Z,1001.64
2023-05-04T07:43:06.648Z,1001.68
2023-05-04T07:44:06.638Z,1001.69
2023-05-04T07:45:06.662Z,1001.69
2023-05-04T07:46:06.650Z,1001.70
2023-05-04T07:47:06.623Z,1001.64
2023-05-04T07:48:06.652Z,1001.64
2023-05-04T07:49:06.594Z,1001.58
2023-05-04T07:50:06.782Z,1001.62
2023-05-04T07:51:06.611Z,1001.62
2023-05-04T07:52:06.578Z,1001.66
2023-05-04T07:53:06.574Z,1001.65
2023-05-04T07:54:06.573Z,1001.65
2023-05-04T07:55:06.576Z,1001.72
2023-05-04T07:56:06.549Z,1001.65
2023-05-04T07:57:06.547Z,1001.67
2023-05-04T07:58:06.691Z,1001.61
2023-05-04T07:59:06.559Z,1001.67
2023-05-04T08:00:06.807Z,1001.60
2023-05-04T08:01:06.521Z,1001.61
2023-05-04T08:02:06.548Z,1001.62
2023-05-04T08:03:06.553Z,1001.53
2023-05-04T08:04:06.487Z,1001.60
2023-05-04T08:05:06.507Z,1001.67
2023-05-04T08:06:06.490Z,1001.60
2023-05-04T08:07:06.678Z,1001.54
2023-05-04T08:08:06.464Z,1001.61
2023-05-04T08:09:06.463Z,1001.58
2023-05-04T08:10:06.724Z,1001.43
2023-05-04T08:11:19.397Z,1001.46
2023-05-04T08:12:08.431Z,1001.51
2023-05-04T08:13:06.510Z,1001.55
2023-05-04T08:14:06.486Z,1001.53
2023-05-04T08:15:06.568Z,1001.51
2023-05-04T08:16:06.412Z,1001.51
2023-05-04T08:17:06.406Z,1001.46
2023-05-04T08:18:06.451Z,1001.50
2023-05-04T08:19:06.380Z,1001.51
2023-05-04T08:20:06.378Z,1001.51
2023-05-04T08:21:06.387Z,1001.41
2023-05-04T08:22:06.356Z,1001.55
2023-05-04T08:23:06.450Z,1001.55
2023-05-04T08:24:06.337Z,1001.48
2023-05-04T08:25:06.571Z,1001.49
2023-05-04T08:26:06.350Z,1001.38
2023-05-04T08:27:08.371Z,1001.38
2023-05-04T08:28:07.321Z,1001.39
2023-05-04T08:29:06.306Z,1001.41
2023-05-04T08:30:06.299Z,1001.37
2023-05-04T08:31:06.316Z,1001.34
2023-05-04T08:32:06.400Z,1001.30
2023-05-04T08:33:06.316Z,1001.29
2023-05-04T08:34:06.286Z,1001.35
2023-05-04T08:35:06.454Z,1001.37
2023-05-04T08:36:06.296Z,1001.36
2023-05-04T08:37:06.281Z,1001.37
2023-05-04T08:38:06.252Z,1001.31
2023-05-04T08:39:06.239Z,1001.33
2023-05-04T08:40:06.254Z,1001.30
2023-05-04T08:41:06.214Z,1001.27
2023-05-04T08:42:06.217Z,1001.23
2023-05-04T08:43:06.202Z,1001.24
2023-05-04T08:44:06.299Z,1001.22
2023-05-04T08:45:06.455Z,1001.19
2023-05-04T08:46:06.207Z,1001.14
2023-05-04T08:47:06.198Z,1001.22
2023-05-04T08:48:06.228Z,1001.19
2023-05-04T08:49:06.184Z,1001.19
2023-05-04T08:50:06.151Z,1001.20
2023-05-04T08:51:06.142Z,1001.22
2023-05-04T08:52:06.134Z,1001.15
2023-05-04T08:53:06.124Z,1001.18
2023-05-04T08:54:06.150Z,1001.17
2023-05-04T08:55:06.373Z,1001.19
2023-05-04T08:56:06.100Z,1001.20
2023-05-04T08:57:06.102Z,1001.15
2023-05-04T08:58:06.113Z,1001.19
2023-05-04T08:59:06.101Z,1001.17
2023-05-04T09:00:06.068Z,1001.21
2023-05-04T09:01:06.179Z,1001.13
2023-05-04T09:02:06.310Z,1001.06
2023-05-04T09:03:06.134Z,1001.13
2023-05-04T09:04:06.062Z,1001.13
2023-05-04T09:05:06.214Z,1001.12
2023-05-04T09:06:06.028Z,1001.06
2023-05-04T09:07:06.020Z,1001.07
2023-05-04T09:08:06.035Z,1001.11
2023-05-04T09:09:06.008Z,1001.08
2023-05-04T09:10:05.983Z,1001.06
2023-05-04T09:11:06.002Z,1000.98
2023-05-04T09:12:06.008Z,1000.92
2023-05-04T09:13:06.116Z,1000.96
2023-05-04T09:14:06.063Z,1000.96
2023-05-04T09:15:06.479Z,1000.93
2023-05-04T09:16:05.953Z,1000.91
2023-05-04T09:17:06.039Z,1000.94
2023-05-04T09:18:05.969Z,1000.93
2023-05-04T09:19:05.926Z,1000.83
2023-05-04T09:20:05.917Z,1000.88
2023-05-04T09:21:05.910Z,1000.90
2023-05-04T09:22:05.920Z,1000.87
2023-05-04T09:23:05.889Z,1000.78
2023-05-04T09:24:05.929Z,1000.83
2023-05-04T09:25:06.082Z,1000.80
2023-05-04T09:26:05.876Z,1000.71
2023-05-04T09:27:05.901Z,1000.82
2023-05-04T09:28:05.869Z,1000.78
2023-05-04T09:29:05.848Z,1000.77
2023-05-04T09:30:05.882Z,1000.84
2023-05-04T09:31:05.882Z,1000.75
2023-05-04T09:32:05.848Z,1000.80
2023-05-04T09:33:05.883Z,1000.72
2023-05-04T09:34:05.883Z,1000.74
2023-05-04T09:35:06.067Z,1000.72
2023-05-04T09:36:05.817Z,1000.77
2023-05-04T09:37:05.787Z,1000.70
2023-05-04T09:38:05.810Z,1000.69
2023-05-04T09:39:05.779Z,1000.77
2023-05-04T09:40:05.760Z,1000.71
2023-05-04T09:41:05.790Z,1000.75
2023-05-04T09:42:05.753Z,1000.71
2023-05-04T09:43:06.822Z,1000.71
2023-05-04T09:44:05.736Z,1000.78
2023-05-04T09:45:05.877Z,1000.79
2023-05-04T09:46:05.801Z,1000.76
2023-05-04T09:47:05.746Z,1000.79
2023-05-04T09:48:05.754Z,1000.71
2023-05-04T09:49:05.684Z,1000.66
2023-05-04T09:50:05.907Z,1000.66
2023-05-04T09:51:05.822Z,1000.64
2023-05-04T09:52:05.702Z,1000.50
2023-05-04T09:53:05.683Z,1000.48
2023-05-04T09:54:05.681Z,1000.53
2023-05-04T09:55:05.968Z,1000.47
2023-05-04T09:56:07.990Z,1000.53
2023-05-04T09:57:05.652Z,1000.52
2023-05-04T09:58:05.700Z,1000.51
2023-05-04T09:59:05.625Z,1000.50
2023-05-04T10:00:05.640Z,1000.44
2023-05-04T10:01:05.632Z,1000.42
2023-05-04T10:02:14.522Z,1000.45
2023-05-04T10:03:07.611Z,1000.43
2023-05-04T10:04:05.575Z,1000.42
2023-05-04T10:05:05.734Z,1000.38
2023-05-04T10:06:05.640Z,1000.30
2023-05-04T10:07:05.555Z,1000.33
2023-05-04T10:08:05.569Z,1000.37
2023-05-04T10:09:05.559Z,1000.28
2023-05-04T10:10:05.555Z,1000.28
2023-05-04T10:11:05.530Z,1000.19
2023-05-04T10:12:05.514Z,1000.22
2023-05-04T10:13:05.544Z,1000.20
2023-05-04T10:14:05.520Z,1000.22
2023-05-04T10:15:05.581Z,1000.24
2023-05-04T10:16:05.537Z,1000.19
2023-05-04T10:17:05.472Z,1000.12
2023-05-04T10:18:05.489Z,1000.15
2023-05-04T10:19:05.480Z,1000.28
2023-05-04T10:20:05.456Z,1000.20
2023-05-04T10:21:05.452Z,1000.18
2023-05-04T10:22:05.520Z,1000.15
2023-05-04T10:23:05.450Z,1000.14
2023-05-04T10:24:05.449Z,1000.11
2023-05-04T10:25:05.771Z,1000.21
2023-05-04T10:26:05.416Z,1000.18
2023-05-04T10:27:05.392Z,1000.09
2023-05-04T10:28:05.418Z,1000.08
2023-05-04T10:29:06.390Z,1000.16
2023-05-04T10:30:05.377Z,1000.18
2023-05-04T10:31:05.365Z,1000.14
2023-05-04T10:32:05.497Z,1000.05
2023-05-04T10:33:05.439Z,1000.08
2023-05-04T10:34:05.348Z,1000.04
2023-05-04T10:35:05.642Z,1000.07
2023-05-04T10:36:05.343Z,1000.10
2023-05-04T10:37:05.330Z,1000.09
2023-05-04T10:38:05.340Z,999.95
2023-05-04T10:39:05.383Z,1000.06
2023-05-04T10:40:07.314Z,1000.01
2023-05-04T10:41:05.305Z,999.93
2023-05-04T10:42:05.325Z,999.88
2023-05-04T10:43:05.328Z,999.92
2023-05-04T10:44:05.295Z,999.93
2023-05-04T10:45:05.402Z,999.86
2023-05-04T10:46:05.320Z,999.99
2023-05-04T10:47:05.308Z,999.92
2023-05-04T10:48:05.348Z,999.85
2023-05-04T10:49:05.252Z,999.90
2023-05-04T10:50:05.227Z,999.86
2023-05-04T10:51:05.214Z,999.78
2023-05-04T10:52:05.247Z,999.78
2023-05-04T10:53:05.290Z,999.79
2023-05-04T10:54:05.211Z,999.78
2023-05-04T10:55:05.387Z,999.73
2023-05-04T10:56:05.218Z,999.72
2023-05-04T10:57:05.194Z,999.72
2023-05-04T10:58:05.171Z,999.67
2023-05-04T10:59:05.170Z,999.70
2023-05-04T11:00:05.166Z,999.60
2023-05-04T11:01:05.252Z,999.65
2023-05-04T11:02:05.187Z,999.56
2023-05-04T11:03:06.272Z,999.58
2023-05-04T11:04:05.118Z,999.59
2023-05-04T11:05:05.312Z,999.53
2023-05-04T11:06:05.138Z,999.57
2023-05-04T11:07:05.122Z,999.55
2023-05-04T11:08:05.107Z,999.53
2023-05-04T11:09:05.088Z,999.46
2023-05-04T11:10:05.238Z,999.53
2023-05-04T11:11:05.092Z,999.48
2023-05-04T11:12:06.061Z,999.49
2023-05-04T11:13:06.871Z,999.45
2023-05-04T11:14:06.062Z,999.50
2023-05-04T11:15:05.307Z,999.45
2023-05-04T11:16:05.070Z,999.33
2023-05-04T11:17:07.343Z,999.36
2023-05-04T11:18:06.052Z,999.38
2023-05-04T11:19:05.023Z,999.44
2023-05-04T11:20:05.036Z,999.39
2023-05-04T11:21:05.000Z,999.41
2023-05-04T11:22:05.016Z,999.39
2023-05-04T11:23:04.986Z,999.38
2023-05-04T11:24:05.007Z,999.39
2023-05-04T11:25:05.087Z,999.33
2023-05-04T11:26:04.962Z,999.36
2023-05-04T11:27:04.976Z,999.28
2023-05-04T11:28:04.960Z,999.35
2023-05-04T11:29:04.989Z,999.32
2023-05-04T11:30:04.959Z,999.35
2023-05-04T11:31:04.949Z,999.37
2023-05-04T11:32:04.914Z,999.30
2023-05-04T11:33:04.978Z,999.29
2023-05-04T11:34:04.928Z,999.33
2023-05-04T11:35:05.200Z,999.26
2023-05-04T11:36:04.890Z,999.28
2023-05-04T11:37:37.730Z,999.28
2023-05-04T11:38:04.865Z,999.31
2023-05-04T11:39:04.898Z,999.24
2023-05-04T11:40:04.858Z,999.27
2023-05-04T11:41:04.844Z,999.19
2023-05-04T11:42:04.832Z,999.24
2023-05-04T11:43:04.856Z,999.21
2023-05-04T11:44:04.848Z,999.26
2023-05-04T11:45:05.039Z,999.21
2023-05-04T11:46:05.837Z,999.22
2023-05-04T11:47:04.839Z,999.15
2023-05-04T11:48:05.849Z,999.12
2023-05-04T11:49:04.811Z,999.13
2023-05-04T11:50:04.800Z,999.05
2023-05-04T11:51:04.791Z,998.99
2023-05-04T11:52:04.760Z,998.99
2023-05-04T11:53:04.896Z,998.97
2023-05-04T11:54:04.782Z,998.99
2023-05-04T11:55:04.890Z,999.00
2023-05-04T11:56:04.737Z,998.96
2023-05-04T11:57:04.728Z,998.87
2023-05-04T11:58:04.767Z,998.90
2023-05-04T11:59:04.722Z,998.89
2023-05-04T12:00:04.708Z,998.83
2023-05-04T12:01:04.876Z,998.94
2023-05-04T12:02:04.715Z,998.87
2023-05-04T12:03:04.766Z,998.89
2023-05-04T12:04:04.787Z,998.85
2023-05-04T12:05:04.763Z,998.84
2023-05-04T12:06:04.758Z,998.80
2023-05-04T12:07:04.678Z,998.83
2023-05-04T12:08:04.677Z,998.85